sensor_id;sensor_type;location;lat;lon;timestamp;P1;durP1;ratioP1;P2;durP2;ratioP2
59876;SDS011;45749;51.140;17.184;2022-10-23T00:01:30;14.90;;;13.05;;
59876;SDS011;45749;51.140;17.184;2022-10-23T00:04:19;21.42;;;15.23;;
59876;SDS011;45749;51.140;17.184;2022-10-23T00:06:39;20.45;;;15.43;;
59876;SDS011;45749;51.140;17.184;2022-10-23T00:09:06;24.15;;;18.27;;
59876;SDS011;45749;51.140;17.184;2022-10-23T00:11:34;26.02;;;16.40;;
59876;SDS011;45749;51.140;17.184;2022-10-23T00:14:01;25.00;;;17.67;;
59876;SDS011;45749;51.140;17.184;2022-10-23T00:16:30;23.30;;;16.65;;
59876;SDS011;45749;51.140;17.184;2022-10-23T00:18:56;26.80;;;18.42;;
59876;SDS011;45749;51.140;17.184;2022-10-23T00:21:23;26.65;;;20.40;;
59876;SDS011;45749;51.140;17.184;2022-10-23T00:23:49;23.47;;;19.12;;
59876;SDS011;45749;51.140;17.184;2022-10-23T00:26:16;22.87;;;17.75;;
59876;SDS011;45749;51.140;17.184;2022-10-23T00:28:43;24.25;;;17.32;;
59876;SDS011;45749;51.140;17.184;2022-10-23T00:31:12;24.15;;;17.05;;
59876;SDS011;45749;51.140;17.184;2022-10-23T00:33:39;21.25;;;17.87;;
59876;SDS011;45749;51.140;17.184;2022-10-23T00:36:07;27.52;;;18.15;;
59876;SDS011;45749;51.140;17.184;2022-10-23T00:38:36;22.20;;;16.27;;
59876;SDS011;45749;51.140;17.184;2022-10-23T00:41:03;23.12;;;18.48;;
59876;SDS011;45749;51.140;17.184;2022-10-23T00:43:30;18.52;;;13.88;;
59876;SDS011;45749;51.140;17.184;2022-10-23T00:45:57;22.35;;;15.83;;
59876;SDS011;45749;51.140;17.184;2022-10-23T00:48:24;25.62;;;17.67;;
59876;SDS011;45749;51.140;17.184;2022-10-23T00:50:52;23.50;;;16.52;;
59876;SDS011;45749;51.140;17.184;2022-10-23T00:53:19;19.23;;;13.88;;
59876;SDS011;45749;51.140;17.184;2022-10-23T00:55:47;19.90;;;14.45;;
59876;SDS011;45749;51.140;17.184;2022-10-23T00:58:18;21.87;;;14.70;;
59876;SDS011;45749;51.140;17.184;2022-10-23T01:03:18;18.12;;;13.03;;
59876;SDS011;45749;51.140;17.184;2022-10-23T01:05:50;17.55;;;12.70;;
59876;SDS011;45749;51.140;17.184;2022-10-23T01:22:36;21.82;;;14.65;;
59876;SDS011;45749;51.140;17.184;2022-10-23T01:27:54;31.80;;;22.42;;
59876;SDS011;45749;51.140;17.184;2022-10-23T01:30:23;23.55;;;17.55;;
59876;SDS011;45749;51.140;17.184;2022-10-23T01:32:51;27.20;;;17.95;;
59876;SDS011;45749;51.140;17.184;2022-10-23T01:35:21;25.48;;;17.92;;
59876;SDS011;45749;51.140;17.184;2022-10-23T01:38:00;18.10;;;14.03;;
59876;SDS011;45749;51.140;17.184;2022-10-23T01:40:30;19.73;;;15.93;;
59876;SDS011;45749;51.140;17.184;2022-10-23T01:43:01;22.25;;;19.85;;
59876;SDS011;45749;51.140;17.184;2022-10-23T01:45:35;24.43;;;21.35;;
59876;SDS011;45749;51.140;17.184;2022-10-23T01:48:04;25.15;;;20.52;;
59876;SDS011;45749;51.140;17.184;2022-10-23T01:50:33;24.75;;;19.40;;
59876;SDS011;45749;51.140;17.184;2022-10-23T01:53:02;21.93;;;16.10;;
59876;SDS011;45749;51.140;17.184;2022-10-23T01:55:29;21.05;;;15.70;;
59876;SDS011;45749;51.140;17.184;2022-10-23T01:57:57;24.15;;;17.00;;
59876;SDS011;45749;51.140;17.184;2022-10-23T02:00:25;22.62;;;16.25;;
59876;SDS011;45749;51.140;17.184;2022-10-23T02:02:51;24.07;;;15.75;;
59876;SDS011;45749;51.140;17.184;2022-10-23T02:05:21;16.62;;;14.13;;
59876;SDS011;45749;51.140;17.184;2022-10-23T02:07:50;17.50;;;13.35;;
59876;SDS011;45749;51.140;17.184;2022-10-23T02:10:18;16.48;;;13.35;;
59876;SDS011;45749;51.140;17.184;2022-10-23T02:12:47;14.85;;;12.43;;
59876;SDS011;45749;51.140;17.184;2022-10-23T02:15:52;16.45;;;12.85;;
59876;SDS011;45749;51.140;17.184;2022-10-23T02:21:04;14.03;;;11.48;;
59876;SDS011;45749;51.140;17.184;2022-10-23T02:23:39;16.67;;;12.88;;
59876;SDS011;45749;51.140;17.184;2022-10-23T02:26:20;15.98;;;12.65;;
59876;SDS011;45749;51.140;17.184;2022-10-23T02:29:00;17.35;;;12.70;;
59876;SDS011;45749;51.140;17.184;2022-10-23T02:31:33;15.70;;;12.55;;
59876;SDS011;45749;51.140;17.184;2022-10-23T02:33:59;14.30;;;11.03;;
59876;SDS011;45749;51.140;17.184;2022-10-23T02:36:25;17.10;;;11.95;;
59876;SDS011;45749;51.140;17.184;2022-10-23T02:38:51;16.87;;;11.33;;
59876;SDS011;45749;51.140;17.184;2022-10-23T02:50:05;14.07;;;11.00;;
59876;SDS011;45749;51.140;17.184;2022-10-23T02:58:21;14.83;;;10.50;;
59876;SDS011;45749;51.140;17.184;2022-10-23T03:00:58;16.02;;;11.43;;
59876;SDS011;45749;51.140;17.184;2022-10-23T03:03:37;16.50;;;11.00;;
59876;SDS011;45749;51.140;17.184;2022-10-23T03:06:05;18.98;;;11.70;;
59876;SDS011;45749;51.140;17.184;2022-10-23T03:08:41;15.48;;;11.03;;
59876;SDS011;45749;51.140;17.184;2022-10-23T03:11:10;15.93;;;11.28;;
59876;SDS011;45749;51.140;17.184;2022-10-23T03:13:36;14.23;;;11.15;;
59876;SDS011;45749;51.140;17.184;2022-10-23T03:16:02;13.75;;;10.78;;
59876;SDS011;45749;51.140;17.184;2022-10-23T03:18:28;15.18;;;11.83;;
59876;SDS011;45749;51.140;17.184;2022-10-23T03:20:54;15.50;;;11.03;;
59876;SDS011;45749;51.140;17.184;2022-10-23T03:23:21;15.15;;;11.40;;
59876;SDS011;45749;51.140;17.184;2022-10-23T03:25:47;13.55;;;10.10;;
59876;SDS011;45749;51.140;17.184;2022-10-23T03:28:12;14.05;;;10.72;;
59876;SDS011;45749;51.140;17.184;2022-10-23T03:30:38;16.40;;;10.72;;
59876;SDS011;45749;51.140;17.184;2022-10-23T03:33:04;14.47;;;10.38;;
59876;SDS011;45749;51.140;17.184;2022-10-23T03:35:30;14.80;;;11.40;;
59876;SDS011;45749;51.140;17.184;2022-10-23T03:37:56;15.83;;;11.83;;
59876;SDS011;45749;51.140;17.184;2022-10-23T03:40:22;16.93;;;11.45;;
59876;SDS011;45749;51.140;17.184;2022-10-23T03:42:48;15.90;;;13.15;;
59876;SDS011;45749;51.140;17.184;2022-10-23T03:45:14;16.55;;;13.85;;
59876;SDS011;45749;51.140;17.184;2022-10-23T03:47:40;17.98;;;12.75;;
59876;SDS011;45749;51.140;17.184;2022-10-23T03:50:09;15.80;;;11.28;;
59876;SDS011;45749;51.140;17.184;2022-10-23T03:52:35;16.05;;;11.22;;
59876;SDS011;45749;51.140;17.184;2022-10-23T03:55:01;15.48;;;10.65;;
59876;SDS011;45749;51.140;17.184;2022-10-23T03:57:29;14.35;;;10.72;;
59876;SDS011;45749;51.140;17.184;2022-10-23T03:59:55;16.90;;;11.75;;
59876;SDS011;45749;51.140;17.184;2022-10-23T04:02:20;14.90;;;10.68;;
59876;SDS011;45749;51.140;17.184;2022-10-23T04:04:47;14.95;;;10.28;;
59876;SDS011;45749;51.140;17.184;2022-10-23T04:07:13;14.90;;;10.60;;
59876;SDS011;45749;51.140;17.184;2022-10-23T04:09:39;14.23;;;10.08;;
59876;SDS011;45749;51.140;17.184;2022-10-23T04:12:05;14.83;;;9.70;;
59876;SDS011;45749;51.140;17.184;2022-10-23T04:14:31;13.80;;;10.10;;
59876;SDS011;45749;51.140;17.184;2022-10-23T04:16:57;14.18;;;10.32;;
59876;SDS011;45749;51.140;17.184;2022-10-23T04:19:23;18.92;;;11.10;;
59876;SDS011;45749;51.140;17.184;2022-10-23T04:21:49;19.55;;;10.18;;
59876;SDS011;45749;51.140;17.184;2022-10-23T04:24:15;14.03;;;9.63;;
59876;SDS011;45749;51.140;17.184;2022-10-23T04:26:41;12.80;;;9.45;;
59876;SDS011;45749;51.140;17.184;2022-10-23T04:29:07;15.88;;;9.83;;
59876;SDS011;45749;51.140;17.184;2022-10-23T04:31:33;13.25;;;9.70;;
59876;SDS011;45749;51.140;17.184;2022-10-23T04:33:58;12.33;;;9.08;;
59876;SDS011;45749;51.140;17.184;2022-10-23T04:36:24;12.80;;;10.15;;
59876;SDS011;45749;51.140;17.184;2022-10-23T04:38:50;14.95;;;10.88;;
59876;SDS011;45749;51.140;17.184;2022-10-23T04:41:17;18.67;;;10.98;;
59876;SDS011;45749;51.140;17.184;2022-10-23T04:43:43;14.00;;;10.08;;
59876;SDS011;45749;51.140;17.184;2022-10-23T04:46:09;19.05;;;10.75;;
59876;SDS011;45749;51.140;17.184;2022-10-23T04:48:35;12.53;;;10.13;;
59876;SDS011;45749;51.140;17.184;2022-10-23T04:51:02;15.60;;;10.43;;
59876;SDS011;45749;51.140;17.184;2022-10-23T04:53:30;13.20;;;10.23;;
59876;SDS011;45749;51.140;17.184;2022-10-23T04:55:56;10.78;;;9.23;;
59876;SDS011;45749;51.140;17.184;2022-10-23T04:58:24;14.23;;;9.78;;
59876;SDS011;45749;51.140;17.184;2022-10-23T05:00:52;17.32;;;11.18;;
59876;SDS011;45749;51.140;17.184;2022-10-23T05:03:19;14.30;;;9.90;;
59876;SDS011;45749;51.140;17.184;2022-10-23T05:05:47;13.80;;;10.18;;
59876;SDS011;45749;51.140;17.184;2022-10-23T05:08:13;10.98;;;8.73;;
59876;SDS011;45749;51.140;17.184;2022-10-23T05:10:39;14.60;;;9.13;;
59876;SDS011;45749;51.140;17.184;2022-10-23T05:13:05;12.73;;;9.88;;
59876;SDS011;45749;51.140;17.184;2022-10-23T05:15:32;12.18;;;9.23;;
59876;SDS011;45749;51.140;17.184;2022-10-23T05:17:59;11.57;;;8.28;;
59876;SDS011;45749;51.140;17.184;2022-10-23T05:20:30;11.10;;;8.60;;
59876;SDS011;45749;51.140;17.184;2022-10-23T05:22:59;12.53;;;9.18;;
59876;SDS011;45749;51.140;17.184;2022-10-23T05:25:27;12.88;;;10.80;;
59876;SDS011;45749;51.140;17.184;2022-10-23T05:27:55;15.30;;;10.23;;
59876;SDS011;45749;51.140;17.184;2022-10-23T05:30:21;14.40;;;9.98;;
59876;SDS011;45749;51.140;17.184;2022-10-23T05:32:47;13.85;;;9.28;;
59876;SDS011;45749;51.140;17.184;2022-10-23T05:35:14;13.03;;;9.43;;
59876;SDS011;45749;51.140;17.184;2022-10-23T05:37:44;16.10;;;8.70;;
59876;SDS011;45749;51.140;17.184;2022-10-23T05:40:11;12.25;;;9.80;;
59876;SDS011;45749;51.140;17.184;2022-10-23T05:42:37;10.30;;;7.92;;
59876;SDS011;45749;51.140;17.184;2022-10-23T05:45:04;12.50;;;8.43;;
59876;SDS011;45749;51.140;17.184;2022-10-23T05:47:30;10.00;;;7.95;;
59876;SDS011;45749;51.140;17.184;2022-10-23T05:49:56;13.95;;;8.65;;
59876;SDS011;45749;51.140;17.184;2022-10-23T05:52:22;11.73;;;8.43;;
59876;SDS011;45749;51.140;17.184;2022-10-23T05:54:51;11.75;;;8.93;;
59876;SDS011;45749;51.140;17.184;2022-10-23T05:57:17;10.40;;;8.28;;
59876;SDS011;45749;51.140;17.184;2022-10-23T05:59:43;10.90;;;8.53;;
59876;SDS011;45749;51.140;17.184;2022-10-23T06:02:09;10.55;;;7.70;;
59876;SDS011;45749;51.140;17.184;2022-10-23T06:04:35;10.25;;;8.08;;
59876;SDS011;45749;51.140;17.184;2022-10-23T06:07:01;10.63;;;8.15;;
59876;SDS011;45749;51.140;17.184;2022-10-23T06:09:28;11.10;;;8.50;;
59876;SDS011;45749;51.140;17.184;2022-10-23T06:11:54;14.75;;;9.50;;
59876;SDS011;45749;51.140;17.184;2022-10-23T06:14:20;11.25;;;9.43;;
59876;SDS011;45749;51.140;17.184;2022-10-23T06:16:46;11.65;;;8.78;;
59876;SDS011;45749;51.140;17.184;2022-10-23T06:19:12;11.60;;;8.68;;
59876;SDS011;45749;51.140;17.184;2022-10-23T06:21:38;28.65;;;10.72;;
59876;SDS011;45749;51.140;17.184;2022-10-23T06:24:05;15.15;;;9.73;;
59876;SDS011;45749;51.140;17.184;2022-10-23T06:26:32;12.13;;;9.78;;
59876;SDS011;45749;51.140;17.184;2022-10-23T06:28:58;11.63;;;8.73;;
59876;SDS011;45749;51.140;17.184;2022-10-23T06:31:25;18.23;;;12.75;;
59876;SDS011;45749;51.140;17.184;2022-10-23T06:33:52;19.42;;;12.80;;
59876;SDS011;45749;51.140;17.184;2022-10-23T06:36:19;18.45;;;12.03;;
59876;SDS011;45749;51.140;17.184;2022-10-23T06:38:46;18.48;;;13.60;;
59876;SDS011;45749;51.140;17.184;2022-10-23T06:41:18;18.42;;;12.47;;
59876;SDS011;45749;51.140;17.184;2022-10-23T06:43:46;18.02;;;12.73;;
59876;SDS011;45749;51.140;17.184;2022-10-23T06:46:14;19.00;;;12.68;;
59876;SDS011;45749;51.140;17.184;2022-10-23T06:48:42;22.62;;;14.68;;
59876;SDS011;45749;51.140;17.184;2022-10-23T06:51:09;16.45;;;12.30;;
59876;SDS011;45749;51.140;17.184;2022-10-23T06:53:38;16.90;;;12.90;;
59876;SDS011;45749;51.140;17.184;2022-10-23T06:56:05;15.68;;;12.85;;
59876;SDS011;45749;51.140;17.184;2022-10-23T06:58:33;16.23;;;12.58;;
59876;SDS011;45749;51.140;17.184;2022-10-23T07:01:02;16.90;;;12.28;;
59876;SDS011;45749;51.140;17.184;2022-10-23T07:03:31;15.50;;;11.53;;
59876;SDS011;45749;51.140;17.184;2022-10-23T07:05:59;20.17;;;13.83;;
59876;SDS011;45749;51.140;17.184;2022-10-23T07:08:26;19.73;;;14.63;;
59876;SDS011;45749;51.140;17.184;2022-10-23T07:10:53;20.12;;;13.13;;
59876;SDS011;45749;51.140;17.184;2022-10-23T07:13:19;17.65;;;13.08;;
59876;SDS011;45749;51.140;17.184;2022-10-23T07:15:46;22.50;;;15.60;;
59876;SDS011;45749;51.140;17.184;2022-10-23T07:18:12;23.77;;;15.25;;
59876;SDS011;45749;51.140;17.184;2022-10-23T07:20:40;18.02;;;13.50;;
59876;SDS011;45749;51.140;17.184;2022-10-23T07:23:07;23.73;;;16.85;;
59876;SDS011;45749;51.140;17.184;2022-10-23T07:25:35;17.40;;;13.85;;
59876;SDS011;45749;51.140;17.184;2022-10-23T07:28:05;19.95;;;13.00;;
59876;SDS011;45749;51.140;17.184;2022-10-23T07:30:31;18.02;;;12.47;;
59876;SDS011;45749;51.140;17.184;2022-10-23T07:32:57;18.25;;;13.13;;
59876;SDS011;45749;51.140;17.184;2022-10-23T07:35:24;15.40;;;11.73;;
59876;SDS011;45749;51.140;17.184;2022-10-23T07:37:50;19.60;;;13.53;;
59876;SDS011;45749;51.140;17.184;2022-10-23T07:40:15;18.48;;;12.18;;
59876;SDS011;45749;51.140;17.184;2022-10-23T07:42:43;15.63;;;12.33;;
59876;SDS011;45749;51.140;17.184;2022-10-23T07:45:09;15.98;;;11.90;;
59876;SDS011;45749;51.140;17.184;2022-10-23T07:47:36;24.32;;;15.35;;
59876;SDS011;45749;51.140;17.184;2022-10-23T07:50:02;17.32;;;12.93;;
59876;SDS011;45749;51.140;17.184;2022-10-23T07:52:29;33.95;;;21.05;;
59876;SDS011;45749;51.140;17.184;2022-10-23T07:54:55;27.95;;;17.77;;
59876;SDS011;45749;51.140;17.184;2022-10-23T07:57:20;21.15;;;14.73;;
59876;SDS011;45749;51.140;17.184;2022-10-23T07:59:47;18.98;;;14.00;;
59876;SDS011;45749;51.140;17.184;2022-10-23T08:02:14;15.65;;;11.80;;
59876;SDS011;45749;51.140;17.184;2022-10-23T08:04:40;16.27;;;13.55;;
59876;SDS011;45749;51.140;17.184;2022-10-23T08:07:07;18.37;;;13.43;;
59876;SDS011;45749;51.140;17.184;2022-10-23T08:09:33;20.43;;;15.80;;
59876;SDS011;45749;51.140;17.184;2022-10-23T08:11:59;25.82;;;19.37;;
59876;SDS011;45749;51.140;17.184;2022-10-23T08:14:26;28.45;;;22.37;;
59876;SDS011;45749;51.140;17.184;2022-10-23T08:16:52;23.70;;;18.15;;
59876;SDS011;45749;51.140;17.184;2022-10-23T08:19:18;19.57;;;15.98;;
59876;SDS011;45749;51.140;17.184;2022-10-23T08:21:44;18.82;;;14.93;;
59876;SDS011;45749;51.140;17.184;2022-10-23T08:24:10;19.40;;;14.33;;
59876;SDS011;45749;51.140;17.184;2022-10-23T08:26:39;14.73;;;12.10;;
59876;SDS011;45749;51.140;17.184;2022-10-23T08:29:05;19.35;;;15.10;;
59876;SDS011;45749;51.140;17.184;2022-10-23T08:31:31;19.00;;;12.78;;
59876;SDS011;45749;51.140;17.184;2022-10-23T08:33:57;17.37;;;14.15;;
59876;SDS011;45749;51.140;17.184;2022-10-23T08:36:24;16.82;;;12.85;;
59876;SDS011;45749;51.140;17.184;2022-10-23T08:38:53;16.35;;;12.00;;
59876;SDS011;45749;51.140;17.184;2022-10-23T08:41:32;14.25;;;11.75;;
59876;SDS011;45749;51.140;17.184;2022-10-23T08:44:05;21.17;;;14.98;;
59876;SDS011;45749;51.140;17.184;2022-10-23T08:46:58;21.65;;;14.20;;
59876;SDS011;45749;51.140;17.184;2022-10-23T08:57:57;14.80;;;11.25;;
59876;SDS011;45749;51.140;17.184;2022-10-23T09:00:35;13.83;;;11.68;;
59876;SDS011;45749;51.140;17.184;2022-10-23T09:03:02;15.55;;;12.18;;
59876;SDS011;45749;51.140;17.184;2022-10-23T09:05:31;16.40;;;11.97;;
59876;SDS011;45749;51.140;17.184;2022-10-23T09:08:24;13.53;;;10.72;;
59876;SDS011;45749;51.140;17.184;2022-10-23T09:11:30;10.20;;;8.65;;
59876;SDS011;45749;51.140;17.184;2022-10-23T09:14:07;12.40;;;8.95;;
59876;SDS011;45749;51.140;17.184;2022-10-23T09:16:54;8.60;;;7.35;;
59876;SDS011;45749;51.140;17.184;2022-10-23T09:19:22;9.90;;;7.95;;
59876;SDS011;45749;51.140;17.184;2022-10-23T09:21:52;12.35;;;8.00;;
59876;SDS011;45749;51.140;17.184;2022-10-23T09:24:21;12.00;;;7.17;;
59876;SDS011;45749;51.140;17.184;2022-10-23T09:26:50;10.15;;;7.45;;
59876;SDS011;45749;51.140;17.184;2022-10-23T09:32:00;11.50;;;8.13;;
59876;SDS011;45749;51.140;17.184;2022-10-23T09:34:29;8.53;;;7.03;;
59876;SDS011;45749;51.140;17.184;2022-10-23T09:37:02;8.08;;;6.55;;
59876;SDS011;45749;51.140;17.184;2022-10-23T09:40:00;8.50;;;6.35;;
59876;SDS011;45749;51.140;17.184;2022-10-23T09:42:49;8.43;;;7.00;;
59876;SDS011;45749;51.140;17.184;2022-10-23T09:45:29;10.82;;;6.05;;
59876;SDS011;45749;51.140;17.184;2022-10-23T09:48:02;9.58;;;6.62;;
59876;SDS011;45749;51.140;17.184;2022-10-23T09:52:57;7.62;;;5.70;;
59876;SDS011;45749;51.140;17.184;2022-10-23T09:55:23;9.03;;;5.50;;
59876;SDS011;45749;51.140;17.184;2022-10-23T09:57:51;7.65;;;5.67;;
59876;SDS011;45749;51.140;17.184;2022-10-23T10:02:55;10.03;;;4.92;;
59876;SDS011;45749;51.140;17.184;2022-10-23T10:05:34;9.95;;;5.55;;
59876;SDS011;45749;51.140;17.184;2022-10-23T10:14:19;7.62;;;4.83;;
59876;SDS011;45749;51.140;17.184;2022-10-23T10:23:28;7.15;;;5.65;;
59876;SDS011;45749;51.140;17.184;2022-10-23T10:34:57;5.47;;;4.15;;
59876;SDS011;45749;51.140;17.184;2022-10-23T10:40:24;5.97;;;3.40;;
59876;SDS011;45749;51.140;17.184;2022-10-23T10:48:50;7.28;;;4.53;;
59876;SDS011;45749;51.140;17.184;2022-10-23T10:56:52;5.53;;;3.02;;
59876;SDS011;45749;51.140;17.184;2022-10-23T10:59:23;7.10;;;2.95;;
59876;SDS011;45749;51.140;17.184;2022-10-23T11:02:01;4.62;;;3.25;;
59876;SDS011;45749;51.140;17.184;2022-10-23T11:04:43;4.50;;;3.00;;
59876;SDS011;45749;51.140;17.184;2022-10-23T11:07:21;3.83;;;2.77;;
59876;SDS011;45749;51.140;17.184;2022-10-23T11:09:48;5.53;;;2.65;;
59876;SDS011;45749;51.140;17.184;2022-10-23T11:12:25;5.08;;;2.83;;
59876;SDS011;45749;51.140;17.184;2022-10-23T11:14:52;3.20;;;2.67;;
59876;SDS011;45749;51.140;17.184;2022-10-23T11:17:25;6.05;;;2.95;;
59876;SDS011;45749;51.140;17.184;2022-10-23T11:23:06;3.62;;;2.60;;
59876;SDS011;45749;51.140;17.184;2022-10-23T11:25:45;4.35;;;3.50;;
59876;SDS011;45749;51.140;17.184;2022-10-23T11:32:00;4.37;;;3.10;;
59876;SDS011;45749;51.140;17.184;2022-10-23T11:37:30;5.53;;;3.22;;
59876;SDS011;45749;51.140;17.184;2022-10-23T11:45:32;4.00;;;2.73;;
59876;SDS011;45749;51.140;17.184;2022-10-23T11:51:03;4.08;;;3.00;;
59876;SDS011;45749;51.140;17.184;2022-10-23T11:58:49;4.33;;;3.25;;
59876;SDS011;45749;51.140;17.184;2022-10-23T12:01:40;4.42;;;3.22;;
59876;SDS011;45749;51.140;17.184;2022-10-23T12:06:59;5.92;;;3.85;;
59876;SDS011;45749;51.140;17.184;2022-10-23T12:14:46;7.97;;;4.42;;
59876;SDS011;45749;51.140;17.184;2022-10-23T12:17:24;4.20;;;3.30;;
59876;SDS011;45749;51.140;17.184;2022-10-23T12:22:32;4.78;;;3.30;;
59876;SDS011;45749;51.140;17.184;2022-10-23T12:28:02;5.12;;;3.00;;
59876;SDS011;45749;51.140;17.184;2022-10-23T12:33:57;6.00;;;3.20;;
59876;SDS011;45749;51.140;17.184;2022-10-23T12:36:41;7.37;;;3.58;;
59876;SDS011;45749;51.140;17.184;2022-10-23T12:42:03;5.45;;;3.02;;
59876;SDS011;45749;51.140;17.184;2022-10-23T12:44:42;5.80;;;3.15;;
59876;SDS011;45749;51.140;17.184;2022-10-23T12:47:12;6.80;;;3.20;;
59876;SDS011;45749;51.140;17.184;2022-10-23T12:49:46;7.05;;;3.30;;
59876;SDS011;45749;51.140;17.184;2022-10-23T12:52:15;4.75;;;2.90;;
59876;SDS011;45749;51.140;17.184;2022-10-23T12:54:45;4.03;;;3.20;;
59876;SDS011;45749;51.140;17.184;2022-10-23T12:57:24;5.30;;;3.12;;
59876;SDS011;45749;51.140;17.184;2022-10-23T12:59:59;5.30;;;3.10;;
59876;SDS011;45749;51.140;17.184;2022-10-23T13:02:31;5.15;;;3.33;;
59876;SDS011;45749;51.140;17.184;2022-10-23T13:04:58;6.10;;;3.58;;
59876;SDS011;45749;51.140;17.184;2022-10-23T13:07:28;5.37;;;3.02;;
59876;SDS011;45749;51.140;17.184;2022-10-23T13:09:58;4.80;;;3.05;;
59876;SDS011;45749;51.140;17.184;2022-10-23T13:12:26;5.47;;;3.27;;
59876;SDS011;45749;51.140;17.184;2022-10-23T13:17:45;4.03;;;2.55;;
59876;SDS011;45749;51.140;17.184;2022-10-23T13:20:23;5.70;;;3.40;;
59876;SDS011;45749;51.140;17.184;2022-10-23T13:25:50;4.53;;;2.75;;
59876;SDS011;45749;51.140;17.184;2022-10-23T13:28:39;5.28;;;2.75;;
59876;SDS011;45749;51.140;17.184;2022-10-23T13:41:41;6.20;;;3.70;;
59876;SDS011;45749;51.140;17.184;2022-10-23T13:46:38;6.65;;;3.60;;
59876;SDS011;45749;51.140;17.184;2022-10-23T13:49:05;10.72;;;6.87;;
59876;SDS011;45749;51.140;17.184;2022-10-23T13:51:36;9.20;;;5.15;;
59876;SDS011;45749;51.140;17.184;2022-10-23T13:54:03;6.53;;;4.62;;
59876;SDS011;45749;51.140;17.184;2022-10-23T13:56:32;4.70;;;3.35;;
59876;SDS011;45749;51.140;17.184;2022-10-23T13:58:59;6.85;;;4.20;;
59876;SDS011;45749;51.140;17.184;2022-10-23T14:01:26;5.37;;;3.67;;
59876;SDS011;45749;51.140;17.184;2022-10-23T14:04:00;5.92;;;3.40;;
59876;SDS011;45749;51.140;17.184;2022-10-23T14:06:48;6.55;;;4.10;;
59876;SDS011;45749;51.140;17.184;2022-10-23T14:09:15;4.20;;;3.42;;
59876;SDS011;45749;51.140;17.184;2022-10-23T14:11:43;4.90;;;3.95;;
59876;SDS011;45749;51.140;17.184;2022-10-23T14:14:09;6.55;;;4.15;;
59876;SDS011;45749;51.140;17.184;2022-10-23T14:16:35;6.30;;;4.80;;
59876;SDS011;45749;51.140;17.184;2022-10-23T14:19:02;7.25;;;4.58;;
59876;SDS011;45749;51.140;17.184;2022-10-23T14:21:30;6.03;;;4.28;;
59876;SDS011;45749;51.140;17.184;2022-10-23T14:23:56;7.75;;;5.55;;
59876;SDS011;45749;51.140;17.184;2022-10-23T14:26:23;6.37;;;4.60;;
59876;SDS011;45749;51.140;17.184;2022-10-23T14:28:53;6.80;;;4.83;;
59876;SDS011;45749;51.140;17.184;2022-10-23T14:31:21;7.22;;;4.83;;
59876;SDS011;45749;51.140;17.184;2022-10-23T14:33:52;8.18;;;5.10;;
59876;SDS011;45749;51.140;17.184;2022-10-23T14:36:21;8.00;;;5.30;;
59876;SDS011;45749;51.140;17.184;2022-10-23T14:41:50;8.45;;;6.15;;
59876;SDS011;45749;51.140;17.184;2022-10-23T14:44:16;11.10;;;7.53;;
59876;SDS011;45749;51.140;17.184;2022-10-23T14:46:42;16.40;;;11.15;;
59876;SDS011;45749;51.140;17.184;2022-10-23T14:49:09;9.40;;;6.00;;
59876;SDS011;45749;51.140;17.184;2022-10-23T14:51:41;9.65;;;6.80;;
59876;SDS011;45749;51.140;17.184;2022-10-23T15:02:31;18.32;;;11.95;;
59876;SDS011;45749;51.140;17.184;2022-10-23T15:04:57;20.60;;;12.28;;
59876;SDS011;45749;51.140;17.184;2022-10-23T15:07:26;21.95;;;13.28;;
59876;SDS011;45749;51.140;17.184;2022-10-23T15:09:52;17.98;;;9.88;;
59876;SDS011;45749;51.140;17.184;2022-10-23T15:12:19;17.07;;;10.30;;
59876;SDS011;45749;51.140;17.184;2022-10-23T15:14:45;12.47;;;8.53;;
59876;SDS011;45749;51.140;17.184;2022-10-23T15:17:11;11.33;;;7.28;;
59876;SDS011;45749;51.140;17.184;2022-10-23T15:19:37;9.63;;;7.17;;
59876;SDS011;45749;51.140;17.184;2022-10-23T15:22:03;12.18;;;6.30;;
59876;SDS011;45749;51.140;17.184;2022-10-23T15:27:01;9.18;;;5.60;;
59876;SDS011;45749;51.140;17.184;2022-10-23T15:29:33;10.70;;;6.45;;
59876;SDS011;45749;51.140;17.184;2022-10-23T15:34:40;12.58;;;7.72;;
59876;SDS011;45749;51.140;17.184;2022-10-23T15:37:07;11.20;;;7.80;;
59876;SDS011;45749;51.140;17.184;2022-10-23T15:39:35;12.75;;;8.68;;
59876;SDS011;45749;51.140;17.184;2022-10-23T15:42:02;9.75;;;7.67;;
59876;SDS011;45749;51.140;17.184;2022-10-23T15:44:32;12.10;;;8.18;;
59876;SDS011;45749;51.140;17.184;2022-10-23T15:47:07;13.43;;;8.40;;
59876;SDS011;45749;51.140;17.184;2022-10-23T15:49:33;13.50;;;7.87;;
59876;SDS011;45749;51.140;17.184;2022-10-23T15:51:59;11.22;;;8.23;;
59876;SDS011;45749;51.140;17.184;2022-10-23T15:54:27;15.23;;;9.10;;
59876;SDS011;45749;51.140;17.184;2022-10-23T15:56:53;13.55;;;9.63;;
59876;SDS011;45749;51.140;17.184;2022-10-23T15:59:24;15.18;;;10.23;;
59876;SDS011;45749;51.140;17.184;2022-10-23T16:01:49;17.95;;;12.13;;
59876;SDS011;45749;51.140;17.184;2022-10-23T16:04:16;21.25;;;14.40;;
59876;SDS011;45749;51.140;17.184;2022-10-23T16:06:43;44.53;;;32.38;;
59876;SDS011;45749;51.140;17.184;2022-10-23T16:09:10;34.25;;;27.07;;
59876;SDS011;45749;51.140;17.184;2022-10-23T16:11:37;32.38;;;24.12;;
59876;SDS011;45749;51.140;17.184;2022-10-23T16:14:05;32.08;;;24.98;;
59876;SDS011;45749;51.140;17.184;2022-10-23T16:16:34;22.32;;;17.73;;
59876;SDS011;45749;51.140;17.184;2022-10-23T16:19:01;28.52;;;19.55;;
59876;SDS011;45749;51.140;17.184;2022-10-23T16:21:29;19.40;;;15.75;;
59876;SDS011;45749;51.140;17.184;2022-10-23T16:23:58;18.40;;;13.75;;
59876;SDS011;45749;51.140;17.184;2022-10-23T16:26:27;16.20;;;11.45;;
59876;SDS011;45749;51.140;17.184;2022-10-23T16:28:56;14.45;;;11.35;;
59876;SDS011;45749;51.140;17.184;2022-10-23T16:31:26;14.70;;;11.33;;
59876;SDS011;45749;51.140;17.184;2022-10-23T16:33:55;11.38;;;9.93;;
59876;SDS011;45749;51.140;17.184;2022-10-23T16:36:27;16.73;;;10.95;;
59876;SDS011;45749;51.140;17.184;2022-10-23T16:38:53;13.10;;;10.72;;
59876;SDS011;45749;51.140;17.184;2022-10-23T16:41:19;13.98;;;9.95;;
59876;SDS011;45749;51.140;17.184;2022-10-23T16:43:45;14.07;;;9.80;;
59876;SDS011;45749;51.140;17.184;2022-10-23T16:46:12;12.73;;;9.20;;
59876;SDS011;45749;51.140;17.184;2022-10-23T16:48:41;12.25;;;9.00;;
59876;SDS011;45749;51.140;17.184;2022-10-23T16:51:09;13.60;;;9.35;;
59876;SDS011;45749;51.140;17.184;2022-10-23T16:53:41;15.00;;;10.68;;
59876;SDS011;45749;51.140;17.184;2022-10-23T16:56:14;17.05;;;11.10;;
59876;SDS011;45749;51.140;17.184;2022-10-23T16:58:44;20.20;;;16.43;;
59876;SDS011;45749;51.140;17.184;2022-10-23T17:01:12;18.55;;;15.05;;
59876;SDS011;45749;51.140;17.184;2022-10-23T17:03:48;16.12;;;13.08;;
59876;SDS011;45749;51.140;17.184;2022-10-23T17:06:32;43.30;;;33.00;;
59876;SDS011;45749;51.140;17.184;2022-10-23T17:08:59;25.10;;;18.20;;
59876;SDS011;45749;51.140;17.184;2022-10-23T17:11:33;42.23;;;29.70;;
59876;SDS011;45749;51.140;17.184;2022-10-23T17:14:17;35.78;;;25.43;;
59876;SDS011;45749;51.140;17.184;2022-10-23T17:16:50;36.93;;;25.62;;
59876;SDS011;45749;51.140;17.184;2022-10-23T17:19:21;32.90;;;22.52;;